createdAt,value
2022-12-08T00:01:09.540Z,21.92
2022-12-08T00:02:13.955Z,19.95
2022-12-08T00:03:16.804Z,19.52
2022-12-08T00:04:19.150Z,20.52
2022-12-08T00:05:40.084Z,19.63
2022-12-08T00:07:02.500Z,19.10
2022-12-08T00:08:23.861Z,19.02
2022-12-08T00:09:40.127Z,18.95
2022-12-08T00:10:49.934Z,18.95
2022-12-08T00:12:05.170Z,19.98
2022-12-08T00:13:07.372Z,18.50
2022-12-08T00:14:12.173Z,19.30
2022-12-08T00:15:14.532Z,19.13
2022-12-08T00:16:16.816Z,20.13
2022-12-08T00:17:19.556Z,20.00
2022-12-08T00:18:22.067Z,18.90
2022-12-08T00:19:25.328Z,20.85
2022-12-08T00:20:27.644Z,19.92
2022-12-08T00:21:31.271Z,19.35
2022-12-08T00:22:33.589Z,18.77
2022-12-08T00:23:36.004Z,19.17
2022-12-08T00:24:40.018Z,20.90
2022-12-08T00:25:42.366Z,19.88
2022-12-08T00:26:44.932Z,20.17
2022-12-08T00:27:47.699Z,19.10
2022-12-08T00:28:50.821Z,20.02
2022-12-08T00:29:53.527Z,21.00
2022-12-08T00:30:55.879Z,20.45
2022-12-08T00:31:58.350Z,20.50
2022-12-08T00:33:00.666Z,20.73
2022-12-08T00:34:03.971Z,20.27
2022-12-08T00:35:06.812Z,20.33
2022-12-08T00:36:11.971Z,21.02
2022-12-08T00:37:14.547Z,22.35
2022-12-08T00:38:17.037Z,21.80
2022-12-08T00:39:19.788Z,22.42
2022-12-08T00:40:22.171Z,22.45
2022-12-08T00:41:45.349Z,24.58
2022-12-08T00:42:47.993Z,25.20
2022-12-08T00:43:50.156Z,23.85
2022-12-08T00:44:52.540Z,23.15
2022-12-08T00:45:54.908Z,26.17
2022-12-08T00:46:57.377Z,22.27
2022-12-08T00:47:59.868Z,25.20
2022-12-08T00:49:03.019Z,24.45
2022-12-08T00:50:07.362Z,26.83
2022-12-08T00:52:13.144Z,22.90
2022-12-08T00:53:15.613Z,25.52
2022-12-08T00:54:18.479Z,26.52
2022-12-08T00:55:20.907Z,26.17
2022-12-08T00:56:23.476Z,27.10
2022-12-08T00:57:25.896Z,25.55
2022-12-08T00:58:28.190Z,25.38
2022-12-08T00:59:30.666Z,25.25
2022-12-08T01:00:33.011Z,24.45
2022-12-08T01:01:36.135Z,25.20
2022-12-08T01:02:38.608Z,25.55
2022-12-08T01:03:42.288Z,25.35
2022-12-08T01:04:44.934Z,22.60
2022-12-08T01:05:47.239Z,25.25
2022-12-08T01:06:49.802Z,23.67
2022-12-08T01:07:52.255Z,24.27
2022-12-08T01:08:55.112Z,22.90
2022-12-08T01:09:58.293Z,21.92
2022-12-08T01:11:05.618Z,21.65
2022-12-08T01:12:08.440Z,21.70
2022-12-08T01:13:13.657Z,21.88
2022-12-08T01:14:16.502Z,22.80
2022-12-08T01:15:18.839Z,22.20
2022-12-08T01:16:23.396Z,20.65
2022-12-08T01:17:28.046Z,19.70
2022-12-08T01:18:30.751Z,22.40
2022-12-08T01:19:33.199Z,21.83
2022-12-08T01:20:35.615Z,20.65
2022-12-08T01:21:38.179Z,20.23
2022-12-08T01:22:40.599Z,19.65
2022-12-08T01:23:43.077Z,19.63
2022-12-08T01:24:45.567Z,18.13
2022-12-08T01:25:48.032Z,19.45
2022-12-08T01:26:51.488Z,20.42
2022-12-08T01:27:53.986Z,20.85
2022-12-08T01:28:56.463Z,19.25
2022-12-08T01:29:59.631Z,20.02
2022-12-08T01:31:02.785Z,19.83
2022-12-08T01:32:05.463Z,19.85
2022-12-08T01:33:07.831Z,19.70
2022-12-08T01:34:11.555Z,21.85
2022-12-08T01:35:14.410Z,20.92
2022-12-08T01:36:23.151Z,21.05
2022-12-08T01:37:25.966Z,20.77
2022-12-08T01:38:28.187Z,21.23
2022-12-08T01:39:30.862Z,22.23
2022-12-08T01:40:33.264Z,19.70
2022-12-08T01:41:37.876Z,20.60
2022-12-08T01:42:40.183Z,19.83
2022-12-08T01:43:57.490Z,19.88
2022-12-08T01:45:03.163Z,19.88
2022-12-08T01:46:05.946Z,20.83
2022-12-08T01:47:08.963Z,19.95
2022-12-08T01:48:18.726Z,20.05
2022-12-08T01:49:31.087Z,21.30
2022-12-08T01:50:34.333Z,20.90
2022-12-08T01:52:01.054Z,20.70
2022-12-08T01:53:14.792Z,19.58
2022-12-08T01:54:17.784Z,19.75
2022-12-08T01:55:23.158Z,20.50
2022-12-08T01:56:36.519Z,21.15
2022-12-08T01:57:48.927Z,19.65
2022-12-08T01:58:54.366Z,19.60
2022-12-08T02:00:04.456Z,19.83
2022-12-08T02:01:10.928Z,21.02
2022-12-08T02:02:13.402Z,20.13
2022-12-08T02:03:28.874Z,19.77
2022-12-08T02:04:31.185Z,18.08
2022-12-08T02:05:41.037Z,19.02
2022-12-08T02:06:44.989Z,20.77
2022-12-08T02:07:48.821Z,20.52
2022-12-08T02:08:52.375Z,22.73
2022-12-08T02:09:55.523Z,22.27
2022-12-08T02:10:57.944Z,24.02
2022-12-08T02:12:00.946Z,24.23
2022-12-08T02:13:04.892Z,24.02
2022-12-08T02:14:11.618Z,23.75
2022-12-08T02:15:15.173Z,23.17
2022-12-08T02:16:39.044Z,24.02
2022-12-08T02:18:16.238Z,21.90
2022-12-08T02:19:36.569Z,22.45
2022-12-08T02:20:39.030Z,22.63
2022-12-08T02:21:45.231Z,21.90
2022-12-08T02:22:59.665Z,22.17
2022-12-08T02:24:09.905Z,21.55
2022-12-08T02:25:38.406Z,21.83
2022-12-08T02:27:20.306Z,24.40
2022-12-08T02:29:00.488Z,23.30
2022-12-08T02:30:15.985Z,23.40
2022-12-08T02:31:45.665Z,20.38
2022-12-08T02:34:22.939Z,23.10
2022-12-08T02:35:56.437Z,20.75
2022-12-08T02:37:09.746Z,20.90
2022-12-08T02:38:51.042Z,22.60
2022-12-08T02:40:33.894Z,19.05
2022-12-08T02:42:04.560Z,22.08
2022-12-08T02:43:16.785Z,18.85
2022-12-08T02:44:37.606Z,22.33
2022-12-08T02:46:05.991Z,20.45
2022-12-08T02:47:13.883Z,22.08
2022-12-08T02:48:17.365Z,22.05
2022-12-08T02:49:19.971Z,23.10
2022-12-08T02:50:25.372Z,22.65
2022-12-08T02:51:27.719Z,21.98
2022-12-08T02:52:30.068Z,21.92
2022-12-08T02:53:37.422Z,23.77
2022-12-08T02:54:43.149Z,22.90
2022-12-08T02:56:02.196Z,23.13
2022-12-08T02:57:34.467Z,21.90
2022-12-08T02:59:15.671Z,23.25
2022-12-08T03:00:25.046Z,21.55
2022-12-08T03:01:39.590Z,22.88
2022-12-08T03:02:54.219Z,22.30
2022-12-08T03:04:10.485Z,21.88
2022-12-08T03:05:18.753Z,23.42
2022-12-08T03:06:59.740Z,22.17
2022-12-08T03:08:02.463Z,23.23
2022-12-08T03:09:29.247Z,24.58
2022-12-08T03:10:37.735Z,22.60
2022-12-08T03:11:50.085Z,22.42
2022-12-08T03:13:15.957Z,23.42
2022-12-08T03:14:19.658Z,21.90
2022-12-08T03:15:22.784Z,23.05
2022-12-08T03:16:28.642Z,22.45
2022-12-08T03:17:32.366Z,21.60
2022-12-08T03:18:38.319Z,24.25
2022-12-08T03:19:44.027Z,23.75
2022-12-08T03:20:48.249Z,22.98
2022-12-08T03:21:53.826Z,22.58
2022-12-08T03:23:00.293Z,24.33
2022-12-08T03:24:06.602Z,21.85
2022-12-08T03:25:13.615Z,23.88
2022-12-08T03:26:23.028Z,24.70
2022-12-08T03:27:28.267Z,24.60
2022-12-08T03:28:30.814Z,26.65
2022-12-08T03:29:34.114Z,23.10
2022-12-08T03:30:40.021Z,24.13
2022-12-08T03:31:50.345Z,25.20
2022-12-08T03:32:59.556Z,22.77
2022-12-08T03:34:04.869Z,24.65
2022-12-08T03:35:12.759Z,25.60
2022-12-08T03:36:15.424Z,24.13
2022-12-08T03:37:21.413Z,23.75
2022-12-08T03:38:24.930Z,24.30
2022-12-08T03:39:27.122Z,25.10
2022-12-08T03:40:29.520Z,24.98
2022-12-08T03:41:31.909Z,24.20
2022-12-08T03:42:34.199Z,24.40
2022-12-08T03:43:36.877Z,25.48
2022-12-08T03:44:39.297Z,23.35
2022-12-08T03:45:41.582Z,23.45
2022-12-08T03:46:44.026Z,21.85
2022-12-08T03:47:46.601Z,22.85
2022-12-08T03:48:49.151Z,22.83
2022-12-08T03:49:51.683Z,22.58
2022-12-08T03:50:54.129Z,22.92
2022-12-08T03:51:56.759Z,22.25
2022-12-08T03:52:59.085Z,24.13
2022-12-08T03:54:01.431Z,23.25
2022-12-08T03:55:04.012Z,24.85
2022-12-08T03:56:16.351Z,24.75
2022-12-08T03:57:18.763Z,22.73
2022-12-08T03:58:21.063Z,22.30
2022-12-08T03:59:23.514Z,21.67
2022-12-08T04:00:26.190Z,23.40
2022-12-08T04:01:28.690Z,23.23
2022-12-08T04:02:31.240Z,24.52
2022-12-08T04:03:33.672Z,22.48
2022-12-08T04:04:35.969Z,22.83
2022-12-08T04:05:38.580Z,23.70
2022-12-08T04:06:40.978Z,22.17
2022-12-08T04:07:43.777Z,23.98
2022-12-08T04:08:46.360Z,22.30
2022-12-08T04:09:48.808Z,23.05
2022-12-08T04:10:51.248Z,22.15
2022-12-08T04:11:54.189Z,21.33
2022-12-08T04:12:57.522Z,20.20
2022-12-08T04:13:59.972Z,21.08
2022-12-08T04:15:02.276Z,22.35
2022-12-08T04:16:06.465Z,22.42
2022-12-08T04:17:13.575Z,21.83
2022-12-08T04:18:16.220Z,20.45
2022-12-08T04:19:18.550Z,21.92
2022-12-08T04:20:21.041Z,22.10
2022-12-08T04:21:23.596Z,22.42
2022-12-08T04:22:26.023Z,23.98
2022-12-08T04:23:28.545Z,23.35
2022-12-08T04:24:32.185Z,23.88
2022-12-08T04:25:35.391Z,23.00
2022-12-08T04:26:37.721Z,24.17
2022-12-08T04:27:40.101Z,26.98
2022-12-08T04:28:42.687Z,27.88
2022-12-08T04:29:45.208Z,24.00
2022-12-08T04:30:49.032Z,24.88
2022-12-08T04:31:51.400Z,24.80
2022-12-08T04:32:54.173Z,24.05
2022-12-08T04:33:56.513Z,24.10
2022-12-08T04:34:59.035Z,25.20
2022-12-08T04:36:03.579Z,23.77
2022-12-08T04:38:08.456Z,21.33
2022-12-08T04:39:10.904Z,22.98
2022-12-08T04:40:14.883Z,21.40
2022-12-08T04:41:17.245Z,21.85
2022-12-08T04:42:19.583Z,21.38
2022-12-08T04:43:21.882Z,24.33
2022-12-08T04:44:24.159Z,21.90
2022-12-08T04:45:26.563Z,23.38
2022-12-08T04:46:29.258Z,22.67
2022-12-08T04:47:32.958Z,24.20
2022-12-08T04:48:38.107Z,23.70
2022-12-08T04:49:40.421Z,25.75
2022-12-08T04:50:44.518Z,26.13
2022-12-08T04:51:46.947Z,27.45
2022-12-08T04:52:49.362Z,24.73
2022-12-08T04:53:51.686Z,27.02
2022-12-08T04:54:54.094Z,27.75
2022-12-08T04:55:56.533Z,28.58
2022-12-08T04:56:59.360Z,27.38
2022-12-08T04:58:01.904Z,27.85
2022-12-08T04:59:07.353Z,30.10
2022-12-08T05:00:11.040Z,28.27
2022-12-08T05:01:16.392Z,28.23
2022-12-08T05:02:19.748Z,28.17
2022-12-08T05:03:28.298Z,30.58
2022-12-08T05:04:31.510Z,30.23
2022-12-08T05:05:34.012Z,30.77
2022-12-08T05:06:36.512Z,29.52
2022-12-08T05:07:39.103Z,35.10
2022-12-08T05:08:42.697Z,34.13
2022-12-08T05:09:45.094Z,31.20
2022-12-08T05:10:47.425Z,32.70
2022-12-08T05:11:49.864Z,31.17
2022-12-08T05:12:52.306Z,30.40
2022-12-08T05:13:54.887Z,28.52
2022-12-08T05:15:05.005Z,27.95
2022-12-08T05:16:11.449Z,26.27
2022-12-08T05:17:17.130Z,27.92
2022-12-08T05:18:19.747Z,26.90
2022-12-08T05:19:22.606Z,25.48
2022-12-08T05:20:25.366Z,26.17
2022-12-08T05:21:30.593Z,26.02
2022-12-08T05:22:35.715Z,27.13
2022-12-08T05:25:00.515Z,27.67
2022-12-08T05:26:02.790Z,27.90
2022-12-08T05:27:05.776Z,26.50
2022-12-08T05:28:39.570Z,25.88
2022-12-08T05:29:30.684Z,23.60
2022-12-08T05:30:33.132Z,22.13
2022-12-08T05:31:35.704Z,22.38
2022-12-08T05:32:43.050Z,24.17
2022-12-08T05:33:45.915Z,23.27
2022-12-08T05:34:48.469Z,21.40
2022-12-08T05:35:51.042Z,21.50
2022-12-08T05:36:56.173Z,22.42
2022-12-08T05:38:05.598Z,22.02
2022-12-08T05:39:08.211Z,20.45
2022-12-08T05:40:13.126Z,23.20
2022-12-08T05:41:19.705Z,22.67
2022-12-08T05:42:25.288Z,21.73
2022-12-08T05:43:27.878Z,21.95
2022-12-08T05:44:30.343Z,20.92
2022-12-08T05:45:33.030Z,22.27
2022-12-08T05:46:35.783Z,21.90
2022-12-08T05:47:38.460Z,22.92
2022-12-08T05:48:41.755Z,21.27
2022-12-08T05:49:47.201Z,20.63
2022-12-08T05:50:51.277Z,21.58
2022-12-08T05:51:53.680Z,20.92
2022-12-08T05:52:56.002Z,20.38
2022-12-08T05:54:00.727Z,21.92
2022-12-08T05:55:03.157Z,21.52
2022-12-08T05:56:05.688Z,20.45
2022-12-08T05:57:08.415Z,20.08
2022-12-08T05:58:19.673Z,20.77
2022-12-08T05:59:21.999Z,20.95
2022-12-08T06:00:24.313Z,20.15
2022-12-08T06:01:30.406Z,23.38
2022-12-08T06:02:33.718Z,21.58
2022-12-08T06:03:36.214Z,20.92
2022-12-08T06:04:38.595Z,21.88
2022-12-08T06:05:56.250Z,22.25
2022-12-08T06:06:59.828Z,19.40
2022-12-08T06:08:05.824Z,23.35
2022-12-08T06:09:09.357Z,23.05
2022-12-08T06:10:12.282Z,22.25
2022-12-08T06:11:24.116Z,20.63
2022-12-08T06:12:29.623Z,21.95
2022-12-08T06:13:31.950Z,20.55
2022-12-08T06:14:34.490Z,21.08
2022-12-08T06:15:38.221Z,21.33
2022-12-08T06:16:40.637Z,22.95
2022-12-08T06:17:43.397Z,22.85
2022-12-08T06:18:46.151Z,22.67
2022-12-08T06:19:48.558Z,28.77
2022-12-08T06:20:50.869Z,27.85
2022-12-08T06:21:53.394Z,31.05
2022-12-08T06:22:55.965Z,30.15
2022-12-08T06:23:58.372Z,33.00
2022-12-08T06:25:00.708Z,35.22
2022-12-08T06:26:05.749Z,35.08
2022-12-08T06:27:08.057Z,34.28
2022-12-08T06:28:10.377Z,34.72
2022-12-08T06:29:13.498Z,34.10
2022-12-08T06:30:16.264Z,33.97
2022-12-08T06:31:21.663Z,33.78
2022-12-08T06:32:27.620Z,33.63
2022-12-08T06:33:30.084Z,33.03
2022-12-08T06:34:32.378Z,33.50
2022-12-08T06:35:34.755Z,36.40
2022-12-08T06:36:37.310Z,37.47
2022-12-08T06:37:39.836Z,38.58
2022-12-08T06:38:43.818Z,34.95
2022-12-08T06:39:46.367Z,35.67
2022-12-08T06:40:55.994Z,35.53
2022-12-08T06:42:16.726Z,34.67
2022-12-08T06:43:19.363Z,31.50
2022-12-08T06:44:21.705Z,32.85
2022-12-08T06:45:24.076Z,31.23
2022-12-08T06:46:26.462Z,33.53
2022-12-08T06:47:28.898Z,33.15
2022-12-08T06:48:31.316Z,32.60
2022-12-08T06:49:33.718Z,33.13
2022-12-08T06:50:36.184Z,33.45
2022-12-08T06:51:38.502Z,35.80
2022-12-08T06:52:51.726Z,35.25
2022-12-08T06:53:58.190Z,37.00
2022-12-08T06:55:00.482Z,33.90
2022-12-08T06:56:04.023Z,39.90
2022-12-08T06:57:06.794Z,37.03
2022-12-08T06:58:09.200Z,40.38
2022-12-08T06:59:11.652Z,41.50
2022-12-08T07:00:15.105Z,43.10
2022-12-08T07:01:17.775Z,47.08
2022-12-08T07:02:20.351Z,41.78
2022-12-08T07:03:22.751Z,42.83
2022-12-08T07:04:26.221Z,42.38
2022-12-08T07:05:28.603Z,43.17
2022-12-08T07:06:30.921Z,46.30
2022-12-08T07:07:33.663Z,44.70
2022-12-08T07:08:36.425Z,46.00
2022-12-08T07:09:39.020Z,44.85
2022-12-08T07:10:41.976Z,38.85
2022-12-08T07:11:44.414Z,41.53
2022-12-08T07:12:46.833Z,40.15
2022-12-08T07:13:49.119Z,38.65
2022-12-08T07:14:51.548Z,37.67
2022-12-08T07:15:53.901Z,36.33
2022-12-08T07:16:56.498Z,33.65
2022-12-08T07:18:00.371Z,34.03
2022-12-08T07:19:03.037Z,32.55
2022-12-08T07:20:06.498Z,33.67
2022-12-08T07:21:11.988Z,34.58
2022-12-08T07:22:14.462Z,33.42
2022-12-08T07:23:16.944Z,31.80
2022-12-08T07:24:19.295Z,32.00
2022-12-08T07:25:22.179Z,32.35
2022-12-08T07:26:24.747Z,31.40
2022-12-08T07:27:27.182Z,31.00
2022-12-08T07:28:33.645Z,30.75
2022-12-08T07:29:36.132Z,33.45
2022-12-08T07:30:39.722Z,28.67
2022-12-08T07:31:42.592Z,32.13
2022-12-08T07:32:45.560Z,31.85
2022-12-08T07:33:48.886Z,30.77
2022-12-08T07:34:51.157Z,34.30
2022-12-08T07:35:58.782Z,33.22
2022-12-08T07:37:02.105Z,32.97
2022-12-08T07:38:04.722Z,32.47
2022-12-08T07:39:07.152Z,33.92
2022-12-08T07:40:10.116Z,35.08
2022-12-08T07:41:14.745Z,34.00
2022-12-08T07:42:17.548Z,33.42
2022-12-08T07:43:23.066Z,34.75
2022-12-08T07:44:25.635Z,33.40
2022-12-08T07:45:31.479Z,32.40
2022-12-08T07:46:34.663Z,34.22
2022-12-08T07:47:37.537Z,35.03
2022-12-08T07:48:39.986Z,36.05
2022-12-08T07:49:42.606Z,36.08
2022-12-08T07:50:45.043Z,34.45
2022-12-08T07:51:47.453Z,32.50
2022-12-08T07:52:49.735Z,32.88
2022-12-08T07:53:54.446Z,31.38
2022-12-08T07:54:57.345Z,30.20
2022-12-08T07:56:00.053Z,31.33
2022-12-08T07:57:03.875Z,31.08
2022-12-08T07:58:06.731Z,32.38
2022-12-08T07:59:09.173Z,32.63
2022-12-08T08:00:12.142Z,34.35
2022-12-08T08:01:24.259Z,34.72
2022-12-08T08:02:26.932Z,35.30
2022-12-08T08:03:29.399Z,41.58
2022-12-08T08:04:34.939Z,40.33
2022-12-08T08:05:37.738Z,37.50
2022-12-08T08:06:40.262Z,40.95
2022-12-08T08:07:43.846Z,42.20
2022-12-08T08:08:46.401Z,39.47
2022-12-08T08:09:51.535Z,37.72
2022-12-08T08:10:53.759Z,36.05
2022-12-08T08:12:28.909Z,34.05
2022-12-08T08:13:18.676Z,30.55
2022-12-08T08:14:21.102Z,30.77
2022-12-08T08:15:23.439Z,29.02
2022-12-08T08:16:25.936Z,34.00
2022-12-08T08:17:29.420Z,31.05
2022-12-08T08:18:33.066Z,30.63
2022-12-08T08:19:35.434Z,35.40
2022-12-08T08:20:37.766Z,30.70
2022-12-08T08:21:47.680Z,31.30
2022-12-08T08:22:50.935Z,28.73
2022-12-08T08:23:53.338Z,30.80
2022-12-08T08:24:55.594Z,33.30
2022-12-08T08:26:03.074Z,32.78
2022-12-08T08:27:05.674Z,33.58
2022-12-08T08:28:08.745Z,34.17
2022-12-08T08:29:11.192Z,33.00
2022-12-08T08:30:19.942Z,35.08
2022-12-08T08:31:27.263Z,34.67
2022-12-08T08:32:34.016Z,36.95
2022-12-08T08:33:36.268Z,36.08
2022-12-08T08:34:38.917Z,33.33
2022-12-08T08:35:42.549Z,33.90
2022-12-08T08:36:46.106Z,33.38
2022-12-08T08:37:49.769Z,33.17
2022-12-08T08:38:52.679Z,34.83
2022-12-08T08:39:55.002Z,34.70
2022-12-08T08:40:57.832Z,34.60
2022-12-08T08:42:00.290Z,33.83
2022-12-08T08:43:04.740Z,34.10
2022-12-08T08:44:07.854Z,35.42
2022-12-08T08:45:10.828Z,33.08
2022-12-08T08:46:13.117Z,34.80
2022-12-08T08:47:15.847Z,33.88
2022-12-08T08:48:18.171Z,34.45
2022-12-08T08:49:21.503Z,33.22
2022-12-08T08:50:23.925Z,35.47
2022-12-08T08:51:27.813Z,34.72
2022-12-08T08:52:30.329Z,33.60
2022-12-08T08:53:32.663Z,33.97
2022-12-08T08:54:35.791Z,39.50
2022-12-08T08:55:39.749Z,39.35
2022-12-08T08:56:42.258Z,45.45
2022-12-08T08:57:44.569Z,40.45
2022-12-08T08:58:49.031Z,42.78
2022-12-08T08:59:51.936Z,43.47
2022-12-08T09:00:54.285Z,38.28
2022-12-08T09:01:59.124Z,39.33
2022-12-08T09:03:01.799Z,33.03
2022-12-08T09:04:04.263Z,31.10
2022-12-08T09:05:07.893Z,31.52
2022-12-08T09:06:10.455Z,30.80
2022-12-08T09:07:13.656Z,28.92
2022-12-08T09:08:16.381Z,30.27
2022-12-08T09:09:18.850Z,31.52
2022-12-08T09:10:21.387Z,29.88
2022-12-08T09:11:24.255Z,28.92
2022-12-08T09:12:26.734Z,28.95
2022-12-08T09:13:29.098Z,30.25
2022-12-08T09:14:31.571Z,27.25
2022-12-08T09:15:34.703Z,27.00
2022-12-08T09:16:41.932Z,29.90
2022-12-08T09:17:44.837Z,27.08
2022-12-08T09:18:49.794Z,26.90
2022-12-08T09:19:52.160Z,28.77
2022-12-08T09:20:54.830Z,26.05
2022-12-08T09:21:57.731Z,27.52
2022-12-08T09:23:03.144Z,27.73
2022-12-08T09:24:07.054Z,28.42
2022-12-08T09:25:09.850Z,26.85
2022-12-08T09:26:13.043Z,28.73
2022-12-08T09:27:15.328Z,25.58
2022-12-08T09:28:17.856Z,25.63
2022-12-08T09:29:20.420Z,24.52
2022-12-08T09:30:24.128Z,26.67
2022-12-08T09:31:27.042Z,27.52
2022-12-08T09:32:29.391Z,25.90
2022-12-08T09:33:34.779Z,26.23
2022-12-08T09:34:37.472Z,25.15
2022-12-08T09:35:39.883Z,27.33
2022-12-08T09:36:42.246Z,26.90
2022-12-08T09:37:44.872Z,25.98
2022-12-08T09:38:47.158Z,25.45
2022-12-08T09:39:49.571Z,25.40
2022-12-08T09:40:53.969Z,26.13
2022-12-08T09:42:01.865Z,25.33
2022-12-08T09:43:18.808Z,28.42
2022-12-08T09:44:39.582Z,30.05
2022-12-08T09:45:42.154Z,31.40
2022-12-08T09:46:47.291Z,29.98
2022-12-08T09:48:22.387Z,29.65
2022-12-08T09:49:46.034Z,26.27
2022-12-08T09:50:58.194Z,26.80
2022-12-08T09:52:01.262Z,26.33
2022-12-08T09:53:12.590Z,26.13
2022-12-08T09:54:21.495Z,40.60
2022-12-08T09:55:43.433Z,39.75
2022-12-08T09:56:46.170Z,32.92
2022-12-08T09:57:56.955Z,36.05
2022-12-08T09:59:27.412Z,36.65
2022-12-08T10:00:30.599Z,42.20
2022-12-08T10:01:38.512Z,59.95
2022-12-08T10:02:40.990Z,59.28
2022-12-08T10:03:43.598Z,49.25
2022-12-08T10:04:46.044Z,45.90
2022-12-08T10:06:11.584Z,44.88
2022-12-08T10:07:45.418Z,35.70
2022-12-08T10:09:22.708Z,28.23
2022-12-08T10:10:47.346Z,29.75
2022-12-08T10:11:57.859Z,30.55
2022-12-08T10:13:12.004Z,32.05
2022-12-08T10:14:47.618Z,32.63
2022-12-08T10:16:23.029Z,33.40
2022-12-08T10:17:31.041Z,30.98
2022-12-08T10:18:34.855Z,29.10
2022-12-08T10:19:40.771Z,33.50
2022-12-08T10:20:46.414Z,30.10
2022-12-08T10:21:50.524Z,32.70
2022-12-08T10:23:18.701Z,29.13
2022-12-08T10:24:28.240Z,28.52
2022-12-08T10:25:39.575Z,31.33
2022-12-08T10:26:42.071Z,29.50
2022-12-08T10:27:47.125Z,27.60
2022-12-08T10:28:51.712Z,26.00
2022-12-08T10:29:54.112Z,26.10
2022-12-08T10:30:57.452Z,26.25
2022-12-08T10:32:00.625Z,30.88
2022-12-08T10:33:03.867Z,34.50
2022-12-08T10:34:17.644Z,34.78
2022-12-08T10:35:22.511Z,32.03
2022-12-08T10:36:56.281Z,35.45
2022-12-08T10:38:00.665Z,35.30
2022-12-08T10:40:18.632Z,27.17
2022-12-08T10:41:21.219Z,28.92
2022-12-08T10:42:23.592Z,30.35
2022-12-08T10:43:27.398Z,28.63
2022-12-08T10:44:29.959Z,28.55
2022-12-08T10:45:44.126Z,30.92
2022-12-08T10:46:46.603Z,38.80
2022-12-08T10:48:10.061Z,32.88
2022-12-08T10:49:13.505Z,32.25
2022-12-08T10:50:15.828Z,33.03
2022-12-08T10:51:34.873Z,28.52
2022-12-08T10:52:41.169Z,30.42
2022-12-08T10:53:46.882Z,30.48
2022-12-08T10:54:54.675Z,27.40
2022-12-08T10:56:03.251Z,27.48
2022-12-08T10:57:05.797Z,33.08
2022-12-08T10:58:28.136Z,28.05
2022-12-08T10:59:33.828Z,29.98
2022-12-08T11:00:39.571Z,28.50
2022-12-08T11:01:45.644Z,28.05
2022-12-08T11:02:59.680Z,27.75
2022-12-08T11:04:03.910Z,32.83
2022-12-08T11:05:06.771Z,29.88
2022-12-08T11:06:15.043Z,22.02
2022-12-08T11:07:23.335Z,24.42
2022-12-08T11:08:28.391Z,22.08
2022-12-08T11:09:51.083Z,21.20
2022-12-08T11:10:53.626Z,20.45
2022-12-08T11:12:14.224Z,20.05
2022-12-08T11:13:26.527Z,20.15
2022-12-08T11:14:30.481Z,22.67
2022-12-08T11:15:36.766Z,22.30
2022-12-08T11:16:42.443Z,21.67
2022-12-08T11:17:52.207Z,21.05
2022-12-08T11:18:58.934Z,24.35
2022-12-08T11:20:11.758Z,22.95
2022-12-08T11:21:19.849Z,25.27
2022-12-08T11:22:24.685Z,24.65
2022-12-08T11:23:29.120Z,24.38
2022-12-08T11:24:37.685Z,23.67
2022-12-08T11:25:40.625Z,23.38
2022-12-08T11:26:52.207Z,22.92
2022-12-08T11:28:00.031Z,21.95
2022-12-08T11:29:02.697Z,22.42
2022-12-08T11:30:15.819Z,22.27
2022-12-08T11:31:44.235Z,21.15
2022-12-08T11:32:55.776Z,20.52
2022-12-08T11:33:58.821Z,21.92
2022-12-08T11:35:06.802Z,22.10
2022-12-08T11:36:14.756Z,23.05
2022-12-08T11:37:27.485Z,21.88
2022-12-08T11:38:34.195Z,21.83
2022-12-08T11:39:43.811Z,23.55
2022-12-08T11:40:46.356Z,23.25
2022-12-08T11:41:49.578Z,22.05
2022-12-08T11:43:06.518Z,21.48
2022-12-08T11:45:35.441Z,20.73
2022-12-08T11:47:01.579Z,23.60
2022-12-08T11:48:07.605Z,24.00
2022-12-08T11:49:14.282Z,23.85
2022-12-08T11:50:39.384Z,25.45
2022-12-08T11:51:51.422Z,24.92
2022-12-08T11:52:53.895Z,25.88
2022-12-08T11:54:21.243Z,23.83
2022-12-08T11:55:40.634Z,22.42
2022-12-08T11:56:47.090Z,24.10
2022-12-08T11:57:51.931Z,23.10
2022-12-08T11:58:58.874Z,20.90
2022-12-08T12:00:02.308Z,23.77
2022-12-08T12:01:24.171Z,22.90
2022-12-08T12:02:32.338Z,22.17
2022-12-08T12:03:40.841Z,23.38
2022-12-08T12:04:43.474Z,24.42
2022-12-08T12:06:18.326Z,22.90
2022-12-08T12:07:46.973Z,22.25
2022-12-08T12:09:01.411Z,23.55
2022-12-08T12:10:28.503Z,23.13
2022-12-08T12:12:04.124Z,23.65
2022-12-08T12:13:23.416Z,24.52
2022-12-08T12:14:41.785Z,23.80
2022-12-08T12:16:21.682Z,25.70
2022-12-08T12:17:33.063Z,24.02
2022-12-08T12:18:45.590Z,25.85
2022-12-08T12:19:49.411Z,25.10
2022-12-08T12:21:08.184Z,26.33
2022-12-08T12:22:17.868Z,26.70
2022-12-08T12:24:35.947Z,22.60
2022-12-08T12:25:46.000Z,23.98
2022-12-08T12:27:17.760Z,23.42
2022-12-08T12:28:20.309Z,24.25
2022-12-08T12:29:26.692Z,23.98
2022-12-08T12:30:48.971Z,25.48
2022-12-08T12:31:59.515Z,24.77
2022-12-08T12:33:02.824Z,26.73
2022-12-08T12:34:14.887Z,24.95
2022-12-08T12:35:40.917Z,24.38
2022-12-08T12:36:57.903Z,23.45
2022-12-08T12:38:33.896Z,24.00
2022-12-08T12:40:01.614Z,22.48
2022-12-08T12:41:07.053Z,23.75
2022-12-08T12:42:37.783Z,25.00
2022-12-08T12:43:40.392Z,22.25
2022-12-08T12:44:43.621Z,24.80
2022-12-08T12:45:46.763Z,23.27
2022-12-08T12:46:49.571Z,23.70
2022-12-08T12:48:14.644Z,24.55
2022-12-08T12:49:43.971Z,25.85
2022-12-08T12:50:48.645Z,24.58
2022-12-08T12:51:55.671Z,23.88
2022-12-08T12:53:01.179Z,25.48
2022-12-08T12:54:28.692Z,24.98
2022-12-08T12:55:46.759Z,26.77
2022-12-08T12:56:51.168Z,23.63
2022-12-08T12:57:56.757Z,23.63
2022-12-08T12:59:35.275Z,23.83
2022-12-08T13:00:37.871Z,24.33
2022-12-08T13:01:54.802Z,24.25
2022-12-08T13:02:59.119Z,24.27
2022-12-08T13:04:09.183Z,25.55
2022-12-08T13:05:26.898Z,24.73
2022-12-08T13:06:42.515Z,27.92
2022-12-08T13:07:55.695Z,23.55
2022-12-08T13:08:58.852Z,23.67
2022-12-08T13:10:18.241Z,24.38
2022-12-08T13:11:21.808Z,24.92
2022-12-08T13:12:25.345Z,25.95
2022-12-08T13:13:29.107Z,26.70
2022-12-08T13:14:35.689Z,30.73
2022-12-08T13:15:48.468Z,42.92
2022-12-08T13:16:54.949Z,50.60
2022-12-08T13:17:58.229Z,50.65
2022-12-08T13:19:04.066Z,51.47
2022-12-08T13:20:17.553Z,43.92
2022-12-08T13:21:23.167Z,56.90
2022-12-08T13:22:53.763Z,63.83
2022-12-08T13:24:14.586Z,44.05
2022-12-08T13:25:44.883Z,42.45
2022-12-08T13:26:48.257Z,37.63
2022-12-08T13:27:55.157Z,30.00
2022-12-08T13:29:01.585Z,54.60
2022-12-08T13:30:42.796Z,43.03
2022-12-08T13:32:12.140Z,32.70
2022-12-08T13:33:33.914Z,28.60
2022-12-08T13:34:45.709Z,27.08
2022-12-08T13:36:03.875Z,27.42
2022-12-08T13:37:12.594Z,36.60
2022-12-08T13:38:21.432Z,43.50
2022-12-08T13:39:41.354Z,43.13
2022-12-08T13:40:44.909Z,31.52
2022-12-08T13:42:08.053Z,28.52
2022-12-08T13:45:18.491Z,27.33
2022-12-08T13:46:52.873Z,28.88
2022-12-08T13:47:34.693Z,28.35
2022-12-08T13:55:49.804Z,31.35
2022-12-08T13:57:36.989Z,29.13
2022-12-08T13:58:40.497Z,27.35
2022-12-08T13:59:46.336Z,27.08
2022-12-08T14:01:17.683Z,31.23
2022-12-08T14:02:40.834Z,33.83
2022-12-08T14:04:22.028Z,33.53
2022-12-08T14:05:19.494Z,36.10
2022-12-08T14:06:29.721Z,32.85
2022-12-08T14:07:33.879Z,30.55
2022-12-08T14:08:59.298Z,30.98
2022-12-08T14:10:00.246Z,30.15
2022-12-08T14:11:06.299Z,32.10
2022-12-08T14:12:28.292Z,34.92
2022-12-08T14:13:33.049Z,31.83
2022-12-08T14:15:02.435Z,39.63
2022-12-08T14:16:06.422Z,41.10
2022-12-08T14:17:17.637Z,53.90
2022-12-08T14:18:33.637Z,82.90
2022-12-08T14:19:36.146Z,61.47
2022-12-08T14:21:12.130Z,59.50
2022-12-08T14:22:13.111Z,66.18
2022-12-08T14:23:17.729Z,69.32
2022-12-08T14:24:22.261Z,48.10
2022-12-08T14:25:28.252Z,45.25
2022-12-08T14:26:35.590Z,36.58
2022-12-08T14:27:38.879Z,45.47
2022-12-08T14:28:44.749Z,40.88
2022-12-08T14:30:00.263Z,35.10
2022-12-08T14:31:03.887Z,33.30
2022-12-08T14:32:23.587Z,36.92
2022-12-08T14:33:27.538Z,37.15
2022-12-08T14:34:29.816Z,40.67
2022-12-08T14:35:37.899Z,37.60
2022-12-08T14:36:40.439Z,31.10
2022-12-08T14:37:46.569Z,35.78
2022-12-08T14:38:51.438Z,32.58
2022-12-08T14:39:59.625Z,28.55
2022-12-08T14:41:08.036Z,28.30
2022-12-08T14:42:23.329Z,30.27
2022-12-08T14:43:28.527Z,30.77
2022-12-08T14:44:33.220Z,28.73
2022-12-08T14:45:47.036Z,27.83